Bemidji, Minnesota
Current Conditions -  °F | °C
As of 7:14 PM on Saturday 20 Dec 2014 (Local Time) from KBJI Reporting Station
Haze Haze  
Wind Chill: 19°   Ceiling: 400
Heat Index: 28°   Visibility: 5mi
Dew Point: 28°   Wind: 10mph
Humidity: 96%   Direction: 170°S
Pressure: 29.97"   Gusts: 18mph
Location:  47.47°N, 94.88°W
Report Text: KBJI 210114Z AUTO 17009G16KT 5SM BR OVC004 M02/M02 A2997 RMK AO2 T10201025
Loading
Personal Weather Stations






























Interactive Weather Map New forecast layout! Learn more

10-Day Weather Forecast

Advertisements
Track Severe Weather on mobile